sensor_id;sensor_type;location;lat;lon;timestamp;temperature;humidity
19908;DHT22;10116;53.112;7.356;2023-04-15T00:00:37;25.00;7.50
19908;DHT22;10116;53.112;7.356;2023-04-15T00:03:03;25.00;6.70
19908;DHT22;10116;53.112;7.356;2023-04-15T00:05:30;25.00;6.40
19908;DHT22;10116;53.112;7.356;2023-04-15T00:07:56;25.00;6.20
19908;DHT22;10116;53.112;7.356;2023-04-15T00:10:23;25.00;6.50
19908;DHT22;10116;53.112;7.356;2023-04-15T00:12:49;25.00;6.40
19908;DHT22;10116;53.112;7.356;2023-04-15T00:15:15;25.00;6.20
19908;DHT22;10116;53.112;7.356;2023-04-15T00:17:41;25.00;6.50
19908;DHT22;10116;53.112;7.356;2023-04-15T00:20:06;25.00;6.70
19908;DHT22;10116;53.112;7.356;2023-04-15T00:22:32;25.00;6.50
19908;DHT22;10116;53.112;7.356;2023-04-15T00:24:58;25.00;6.60
19908;DHT22;10116;53.112;7.356;2023-04-15T00:27:23;25.00;6.70
19908;DHT22;10116;53.112;7.356;2023-04-15T00:29:49;25.00;6.50
19908;DHT22;10116;53.112;7.356;2023-04-15T00:32:14;25.00;6.40
19908;DHT22;10116;53.112;7.356;2023-04-15T00:34:40;25.00;6.40
19908;DHT22;10116;53.112;7.356;2023-04-15T00:37:06;25.00;6.40
19908;DHT22;10116;53.112;7.356;2023-04-15T00:39:32;25.00;6.60
19908;DHT22;10116;53.112;7.356;2023-04-15T00:41:57;25.00;7.00
19908;DHT22;10116;53.112;7.356;2023-04-15T00:44:23;25.00;6.70
19908;DHT22;10116;53.112;7.356;2023-04-15T00:46:50;25.00;7.00
19908;DHT22;10116;53.112;7.356;2023-04-15T00:49:16;25.00;7.10
19908;DHT22;10116;53.112;7.356;2023-04-15T00:51:44;25.00;6.60
19908;DHT22;10116;53.112;7.356;2023-04-15T00:54:10;25.00;6.50
19908;DHT22;10116;53.112;7.356;2023-04-15T00:56:37;25.00;6.10
19908;DHT22;10116;53.112;7.356;2023-04-15T00:59:04;25.00;6.80
19908;DHT22;10116;53.112;7.356;2023-04-15T01:01:34;25.00;6.70
19908;DHT22;10116;53.112;7.356;2023-04-15T01:04:01;25.00;7.20
19908;DHT22;10116;53.112;7.356;2023-04-15T01:06:26;25.00;6.50
19908;DHT22;10116;53.112;7.356;2023-04-15T01:08:56;25.00;6.70
19908;DHT22;10116;53.112;7.356;2023-04-15T01:11:22;25.00;6.20
19908;DHT22;10116;53.112;7.356;2023-04-15T01:13:49;25.00;6.30
19908;DHT22;10116;53.112;7.356;2023-04-15T01:16:15;24.90;6.30
19908;DHT22;10116;53.112;7.356;2023-04-15T01:18:41;25.00;6.90
19908;DHT22;10116;53.112;7.356;2023-04-15T01:21:07;24.90;6.30
19908;DHT22;10116;53.112;7.356;2023-04-15T01:23:35;24.90;6.00
19908;DHT22;10116;53.112;7.356;2023-04-15T01:26:02;24.90;6.40
19908;DHT22;10116;53.112;7.356;2023-04-15T01:28:28;24.90;6.30
19908;DHT22;10116;53.112;7.356;2023-04-15T01:31:10;24.90;6.10
19908;DHT22;10116;53.112;7.356;2023-04-15T01:33:37;24.90;6.70
19908;DHT22;10116;53.112;7.356;2023-04-15T01:36:04;24.90;6.00
19908;DHT22;10116;53.112;7.356;2023-04-15T01:38:31;24.90;5.80
19908;DHT22;10116;53.112;7.356;2023-04-15T01:40:57;24.90;6.00
19908;DHT22;10116;53.112;7.356;2023-04-15T01:43:24;24.90;5.80
19908;DHT22;10116;53.112;7.356;2023-04-15T01:45:50;24.90;5.50
19908;DHT22;10116;53.112;7.356;2023-04-15T01:48:15;24.90;6.20
19908;DHT22;10116;53.112;7.356;2023-04-15T01:50:41;24.90;5.80
19908;DHT22;10116;53.112;7.356;2023-04-15T01:53:07;24.90;5.70
19908;DHT22;10116;53.112;7.356;2023-04-15T01:55:33;24.90;5.60
19908;DHT22;10116;53.112;7.356;2023-04-15T01:57:58;24.90;5.70
19908;DHT22;10116;53.112;7.356;2023-04-15T02:00:24;24.90;6.10
19908;DHT22;10116;53.112;7.356;2023-04-15T02:02:49;24.90;5.90
19908;DHT22;10116;53.112;7.356;2023-04-15T02:05:15;24.90;5.70
19908;DHT22;10116;53.112;7.356;2023-04-15T02:07:44;24.80;5.50
19908;DHT22;10116;53.112;7.356;2023-04-15T02:10:10;24.90;5.60
19908;DHT22;10116;53.112;7.356;2023-04-15T02:12:38;24.80;5.80
19908;DHT22;10116;53.112;7.356;2023-04-15T02:15:04;24.80;5.40
19908;DHT22;10116;53.112;7.356;2023-04-15T02:17:29;24.90;6.30
19908;DHT22;10116;53.112;7.356;2023-04-15T02:19:55;24.80;5.50
19908;DHT22;10116;53.112;7.356;2023-04-15T02:22:21;24.80;6.20
19908;DHT22;10116;53.112;7.356;2023-04-15T02:24:47;24.80;5.80
19908;DHT22;10116;53.112;7.356;2023-04-15T02:27:16;24.80;5.70
19908;DHT22;10116;53.112;7.356;2023-04-15T02:29:45;24.80;6.30
19908;DHT22;10116;53.112;7.356;2023-04-15T02:32:11;24.80;6.20
19908;DHT22;10116;53.112;7.356;2023-04-15T02:34:40;24.80;5.80
19908;DHT22;10116;53.112;7.356;2023-04-15T02:37:11;24.80;5.80
19908;DHT22;10116;53.112;7.356;2023-04-15T02:39:36;24.80;5.40
19908;DHT22;10116;53.112;7.356;2023-04-15T02:42:02;24.80;6.00
19908;DHT22;10116;53.112;7.356;2023-04-15T02:44:29;24.80;6.00
19908;DHT22;10116;53.112;7.356;2023-04-15T02:46:56;24.80;5.50
19908;DHT22;10116;53.112;7.356;2023-04-15T02:49:23;24.80;6.30
19908;DHT22;10116;53.112;7.356;2023-04-15T02:51:48;24.80;5.70
19908;DHT22;10116;53.112;7.356;2023-04-15T02:54:18;24.80;5.70
19908;DHT22;10116;53.112;7.356;2023-04-15T02:56:44;24.80;5.50
19908;DHT22;10116;53.112;7.356;2023-04-15T02:59:10;24.80;5.60
19908;DHT22;10116;53.112;7.356;2023-04-15T03:01:36;24.80;5.90
19908;DHT22;10116;53.112;7.356;2023-04-15T03:04:02;24.80;5.90
19908;DHT22;10116;53.112;7.356;2023-04-15T03:06:27;24.80;5.70
19908;DHT22;10116;53.112;7.356;2023-04-15T03:08:53;24.80;5.60
19908;DHT22;10116;53.112;7.356;2023-04-15T03:11:19;24.80;5.60
19908;DHT22;10116;53.112;7.356;2023-04-15T03:13:45;24.80;5.50
19908;DHT22;10116;53.112;7.356;2023-04-15T03:16:11;24.80;5.50
19908;DHT22;10116;53.112;7.356;2023-04-15T03:18:37;24.80;5.60
19908;DHT22;10116;53.112;7.356;2023-04-15T03:21:03;24.80;5.80
19908;DHT22;10116;53.112;7.356;2023-04-15T03:23:30;24.80;5.90
19908;DHT22;10116;53.112;7.356;2023-04-15T03:25:55;24.80;5.70
19908;DHT22;10116;53.112;7.356;2023-04-15T03:28:22;24.80;6.00
19908;DHT22;10116;53.112;7.356;2023-04-15T03:30:48;24.90;6.40
19908;DHT22;10116;53.112;7.356;2023-04-15T03:33:14;24.90;6.70
19908;DHT22;10116;53.112;7.356;2023-04-15T03:35:39;25.00;7.00
19908;DHT22;10116;53.112;7.356;2023-04-15T03:38:05;25.00;7.80
19908;DHT22;10116;53.112;7.356;2023-04-15T03:40:31;25.10;8.30
19908;DHT22;10116;53.112;7.356;2023-04-15T03:42:57;25.20;8.40
19908;DHT22;10116;53.112;7.356;2023-04-15T03:45:22;25.20;9.20
19908;DHT22;10116;53.112;7.356;2023-04-15T03:47:48;25.20;9.60
19908;DHT22;10116;53.112;7.356;2023-04-15T03:50:14;25.30;9.30
19908;DHT22;10116;53.112;7.356;2023-04-15T03:52:40;25.30;9.20
19908;DHT22;10116;53.112;7.356;2023-04-15T03:55:05;25.30;9.30
19908;DHT22;10116;53.112;7.356;2023-04-15T03:57:31;25.30;9.30
19908;DHT22;10116;53.112;7.356;2023-04-15T03:59:57;25.30;9.50
19908;DHT22;10116;53.112;7.356;2023-04-15T04:02:23;25.30;9.40
19908;DHT22;10116;53.112;7.356;2023-04-15T04:04:48;25.40;9.30
19908;DHT22;10116;53.112;7.356;2023-04-15T04:07:15;25.30;9.20
19908;DHT22;10116;53.112;7.356;2023-04-15T04:09:41;25.30;18.50
19908;DHT22;10116;53.112;7.356;2023-04-15T04:12:07;25.30;8.90
19908;DHT22;10116;53.112;7.356;2023-04-15T04:14:33;25.30;9.10
19908;DHT22;10116;53.112;7.356;2023-04-15T04:16:58;25.30;9.30
19908;DHT22;10116;53.112;7.356;2023-04-15T04:19:24;25.30;8.70
19908;DHT22;10116;53.112;7.356;2023-04-15T04:21:51;25.30;8.60
19908;DHT22;10116;53.112;7.356;2023-04-15T04:24:17;25.30;8.40
19908;DHT22;10116;53.112;7.356;2023-04-15T04:26:42;25.30;8.40
19908;DHT22;10116;53.112;7.356;2023-04-15T04:29:08;25.30;8.40
19908;DHT22;10116;53.112;7.356;2023-04-15T04:31:33;25.30;8.60
19908;DHT22;10116;53.112;7.356;2023-04-15T04:33:59;25.30;8.30
19908;DHT22;10116;53.112;7.356;2023-04-15T04:36:25;25.30;8.90
19908;DHT22;10116;53.112;7.356;2023-04-15T04:38:51;25.40;8.90
19908;DHT22;10116;53.112;7.356;2023-04-15T04:41:17;25.40;9.10
19908;DHT22;10116;53.112;7.356;2023-04-15T04:43:42;25.40;9.50
19908;DHT22;10116;53.112;7.356;2023-04-15T04:46:08;25.50;9.20
19908;DHT22;10116;53.112;7.356;2023-04-15T04:48:34;25.50;9.10
19908;DHT22;10116;53.112;7.356;2023-04-15T04:51:00;25.50;9.90
19908;DHT22;10116;53.112;7.356;2023-04-15T04:53:26;25.50;9.60
19908;DHT22;10116;53.112;7.356;2023-04-15T04:55:52;25.50;9.70
19908;DHT22;10116;53.112;7.356;2023-04-15T04:58:18;25.50;18.10
19908;DHT22;10116;53.112;7.356;2023-04-15T05:00:43;25.50;9.10
19908;DHT22;10116;53.112;7.356;2023-04-15T05:03:09;25.50;9.10
19908;DHT22;10116;53.112;7.356;2023-04-15T05:05:35;25.50;9.40
19908;DHT22;10116;53.112;7.356;2023-04-15T05:08:02;25.50;9.00
19908;DHT22;10116;53.112;7.356;2023-04-15T05:10:28;25.50;9.10
19908;DHT22;10116;53.112;7.356;2023-04-15T05:12:54;25.50;9.00
19908;DHT22;10116;53.112;7.356;2023-04-15T05:15:19;25.50;8.60
19908;DHT22;10116;53.112;7.356;2023-04-15T05:17:45;25.50;8.80
19908;DHT22;10116;53.112;7.356;2023-04-15T05:20:11;25.40;8.80
19908;DHT22;10116;53.112;7.356;2023-04-15T05:22:37;25.40;8.20
19908;DHT22;10116;53.112;7.356;2023-04-15T05:25:03;25.40;8.50
19908;DHT22;10116;53.112;7.356;2023-04-15T05:27:28;25.40;8.30
19908;DHT22;10116;53.112;7.356;2023-04-15T05:29:55;25.40;8.40
19908;DHT22;10116;53.112;7.356;2023-04-15T05:32:21;25.50;8.60
19908;DHT22;10116;53.112;7.356;2023-04-15T05:34:46;25.50;8.90
19908;DHT22;10116;53.112;7.356;2023-04-15T05:37:13;25.50;9.50
19908;DHT22;10116;53.112;7.356;2023-04-15T05:39:38;25.60;9.60
19908;DHT22;10116;53.112;7.356;2023-04-15T05:42:04;25.60;9.70
19908;DHT22;10116;53.112;7.356;2023-04-15T05:44:30;25.70;10.10
19908;DHT22;10116;53.112;7.356;2023-04-15T05:46:56;25.70;10.30
19908;DHT22;10116;53.112;7.356;2023-04-15T05:49:22;25.70;10.40
19908;DHT22;10116;53.112;7.356;2023-04-15T05:51:48;25.80;10.70
19908;DHT22;10116;53.112;7.356;2023-04-15T05:54:13;25.80;11.50
19908;DHT22;10116;53.112;7.356;2023-04-15T05:56:39;25.80;10.60
19908;DHT22;10116;53.112;7.356;2023-04-15T05:59:04;25.80;11.30
19908;DHT22;10116;53.112;7.356;2023-04-15T06:01:31;25.80;10.50
19908;DHT22;10116;53.112;7.356;2023-04-15T06:03:57;25.80;10.60
19908;DHT22;10116;53.112;7.356;2023-04-15T06:06:23;25.80;11.20
19908;DHT22;10116;53.112;7.356;2023-04-15T06:08:48;25.90;10.70
19908;DHT22;10116;53.112;7.356;2023-04-15T06:11:14;25.90;11.10
19908;DHT22;10116;53.112;7.356;2023-04-15T06:13:40;25.80;10.50
19908;DHT22;10116;53.112;7.356;2023-04-15T06:16:06;25.80;10.40
19908;DHT22;10116;53.112;7.356;2023-04-15T06:18:32;25.80;11.40
19908;DHT22;10116;53.112;7.356;2023-04-15T06:20:58;25.80;19.90
19908;DHT22;10116;53.112;7.356;2023-04-15T06:23:23;25.80;10.00
19908;DHT22;10116;53.112;7.356;2023-04-15T06:25:49;25.80;10.00
19908;DHT22;10116;53.112;7.356;2023-04-15T06:28:15;25.80;9.90
19908;DHT22;10116;53.112;7.356;2023-04-15T06:30:41;25.80;10.20
19908;DHT22;10116;53.112;7.356;2023-04-15T06:33:07;25.90;10.60
19908;DHT22;10116;53.112;7.356;2023-04-15T06:35:32;25.90;11.10
19908;DHT22;10116;53.112;7.356;2023-04-15T06:37:58;25.90;11.40
19908;DHT22;10116;53.112;7.356;2023-04-15T06:40:23;26.00;11.40
19908;DHT22;10116;53.112;7.356;2023-04-15T06:42:49;26.00;11.30
19908;DHT22;10116;53.112;7.356;2023-04-15T06:45:15;26.00;11.70
19908;DHT22;10116;53.112;7.356;2023-04-15T06:47:41;26.00;11.20
19908;DHT22;10116;53.112;7.356;2023-04-15T06:50:08;26.00;11.80
19908;DHT22;10116;53.112;7.356;2023-04-15T06:52:34;26.00;11.30
19908;DHT22;10116;53.112;7.356;2023-04-15T06:55:00;26.00;10.90
19908;DHT22;10116;53.112;7.356;2023-04-15T06:57:26;26.00;11.70
19908;DHT22;10116;53.112;7.356;2023-04-15T06:59:53;26.00;11.10
19908;DHT22;10116;53.112;7.356;2023-04-15T07:02:19;26.00;10.90
19908;DHT22;10116;53.112;7.356;2023-04-15T07:04:45;26.00;10.90
19908;DHT22;10116;53.112;7.356;2023-04-15T07:07:11;26.00;10.70
19908;DHT22;10116;53.112;7.356;2023-04-15T07:09:36;26.00;10.70
19908;DHT22;10116;53.112;7.356;2023-04-15T07:12:03;25.90;10.20
19908;DHT22;10116;53.112;7.356;2023-04-15T07:14:28;25.90;9.90
19908;DHT22;10116;53.112;7.356;2023-04-15T07:16:54;25.90;9.80
19908;DHT22;10116;53.112;7.356;2023-04-15T07:19:20;25.90;10.10
19908;DHT22;10116;53.112;7.356;2023-04-15T07:21:46;25.90;10.00
19908;DHT22;10116;53.112;7.356;2023-04-15T07:24:12;25.90;9.80
19908;DHT22;10116;53.112;7.356;2023-04-15T07:26:41;25.80;9.70
19908;DHT22;10116;53.112;7.356;2023-04-15T07:29:06;25.80;9.40
19908;DHT22;10116;53.112;7.356;2023-04-15T07:31:32;25.80;9.40
19908;DHT22;10116;53.112;7.356;2023-04-15T07:33:58;25.90;10.20
19908;DHT22;10116;53.112;7.356;2023-04-15T07:36:24;25.90;10.50
19908;DHT22;10116;53.112;7.356;2023-04-15T07:38:50;25.90;9.50
19908;DHT22;10116;53.112;7.356;2023-04-15T07:41:15;25.80;9.80
19908;DHT22;10116;53.112;7.356;2023-04-15T07:43:41;25.80;9.30
19908;DHT22;10116;53.112;7.356;2023-04-15T07:46:07;25.80;9.40
19908;DHT22;10116;53.112;7.356;2023-04-15T07:48:33;25.80;9.20
19908;DHT22;10116;53.112;7.356;2023-04-15T07:50:59;25.70;9.30
19908;DHT22;10116;53.112;7.356;2023-04-15T07:53:25;25.70;9.00
19908;DHT22;10116;53.112;7.356;2023-04-15T07:55:50;25.60;9.40
19908;DHT22;10116;53.112;7.356;2023-04-15T07:58:16;25.60;8.70
19908;DHT22;10116;53.112;7.356;2023-04-15T08:00:42;25.60;8.40
19908;DHT22;10116;53.112;7.356;2023-04-15T08:03:07;25.60;8.80
19908;DHT22;10116;53.112;7.356;2023-04-15T08:05:33;25.50;8.10
19908;DHT22;10116;53.112;7.356;2023-04-15T08:07:58;25.50;8.40
19908;DHT22;10116;53.112;7.356;2023-04-15T08:10:24;25.50;8.30
19908;DHT22;10116;53.112;7.356;2023-04-15T08:12:50;25.40;8.00
19908;DHT22;10116;53.112;7.356;2023-04-15T08:15:19;25.40;8.60
19908;DHT22;10116;53.112;7.356;2023-04-15T08:17:44;25.40;7.70
19908;DHT22;10116;53.112;7.356;2023-04-15T08:20:11;25.40;8.00
19908;DHT22;10116;53.112;7.356;2023-04-15T08:22:38;25.40;7.30
19908;DHT22;10116;53.112;7.356;2023-04-15T08:25:04;25.30;7.60
19908;DHT22;10116;53.112;7.356;2023-04-15T08:27:29;25.30;7.50
19908;DHT22;10116;53.112;7.356;2023-04-15T08:29:55;25.30;7.60
19908;DHT22;10116;53.112;7.356;2023-04-15T08:32:21;25.30;8.00
19908;DHT22;10116;53.112;7.356;2023-04-15T08:34:47;25.30;7.70
19908;DHT22;10116;53.112;7.356;2023-04-15T08:37:12;25.30;17.10
19908;DHT22;10116;53.112;7.356;2023-04-15T08:39:38;25.30;7.80
19908;DHT22;10116;53.112;7.356;2023-04-15T08:42:10;25.30;7.60
19908;DHT22;10116;53.112;7.356;2023-04-15T08:44:36;25.20;7.50
19908;DHT22;10116;53.112;7.356;2023-04-15T08:47:07;25.20;7.50
19908;DHT22;10116;53.112;7.356;2023-04-15T08:49:38;25.20;16.60
19908;DHT22;10116;53.112;7.356;2023-04-15T08:52:04;25.20;7.40
19908;DHT22;10116;53.112;7.356;2023-04-15T08:54:30;25.20;7.30
19908;DHT22;10116;53.112;7.356;2023-04-15T08:56:57;25.20;7.30
19908;DHT22;10116;53.112;7.356;2023-04-15T08:59:23;25.20;7.30
19908;DHT22;10116;53.112;7.356;2023-04-15T09:01:49;25.20;7.40
19908;DHT22;10116;53.112;7.356;2023-04-15T09:04:16;25.20;7.80
19908;DHT22;10116;53.112;7.356;2023-04-15T09:06:42;25.20;7.70
19908;DHT22;10116;53.112;7.356;2023-04-15T09:09:07;25.10;7.40
19908;DHT22;10116;53.112;7.356;2023-04-15T09:11:33;25.10;7.50
19908;DHT22;10116;53.112;7.356;2023-04-15T09:13:59;25.10;7.60
19908;DHT22;10116;53.112;7.356;2023-04-15T09:16:24;25.10;7.70
19908;DHT22;10116;53.112;7.356;2023-04-15T09:18:50;25.20;7.70
19908;DHT22;10116;53.112;7.356;2023-04-15T09:21:16;25.20;17.30
19908;DHT22;10116;53.112;7.356;2023-04-15T09:23:59;25.20;7.90
19908;DHT22;10116;53.112;7.356;2023-04-15T09:26:35;25.20;8.40
19908;DHT22;10116;53.112;7.356;2023-04-15T09:29:11;25.30;9.80
19908;DHT22;10116;53.112;7.356;2023-04-15T09:31:38;25.30;9.70
19908;DHT22;10116;53.112;7.356;2023-04-15T09:34:05;25.40;10.40
19908;DHT22;10116;53.112;7.356;2023-04-15T09:39:12;25.50;11.00
19908;DHT22;10116;53.112;7.356;2023-04-15T09:41:37;25.60;11.00
19908;DHT22;10116;53.112;7.356;2023-04-15T09:44:03;25.60;20.60
19908;DHT22;10116;53.112;7.356;2023-04-15T09:46:42;25.60;11.60
19908;DHT22;10116;53.112;7.356;2023-04-15T09:49:09;25.60;12.10
19908;DHT22;10116;53.112;7.356;2023-04-15T09:51:35;25.60;12.60
19908;DHT22;10116;53.112;7.356;2023-04-15T09:54:01;25.70;12.40
19908;DHT22;10116;53.112;7.356;2023-04-15T09:56:37;25.70;12.20
19908;DHT22;10116;53.112;7.356;2023-04-15T09:59:06;25.70;12.10
19908;DHT22;10116;53.112;7.356;2023-04-15T10:01:31;25.70;12.90
19908;DHT22;10116;53.112;7.356;2023-04-15T10:03:57;25.70;12.90
19908;DHT22;10116;53.112;7.356;2023-04-15T10:06:25;25.70;21.60
19908;DHT22;10116;53.112;7.356;2023-04-15T10:08:51;25.70;12.70
19908;DHT22;10116;53.112;7.356;2023-04-15T10:11:19;25.70;12.70
19908;DHT22;10116;53.112;7.356;2023-04-15T10:13:45;25.70;12.60
19908;DHT22;10116;53.112;7.356;2023-04-15T10:16:14;25.70;12.70
19908;DHT22;10116;53.112;7.356;2023-04-15T10:18:45;25.70;12.30
19908;DHT22;10116;53.112;7.356;2023-04-15T10:21:12;25.70;12.70
19908;DHT22;10116;53.112;7.356;2023-04-15T10:23:46;25.70;12.40
19908;DHT22;10116;53.112;7.356;2023-04-15T10:26:12;25.70;13.10
19908;DHT22;10116;53.112;7.356;2023-04-15T10:28:39;25.80;13.20
19908;DHT22;10116;53.112;7.356;2023-04-15T10:31:06;25.80;13.60
19908;DHT22;10116;53.112;7.356;2023-04-15T10:33:32;25.90;13.80
19908;DHT22;10116;53.112;7.356;2023-04-15T10:35:59;25.90;14.10
19908;DHT22;10116;53.112;7.356;2023-04-15T10:43:44;25.90;14.60
19908;DHT22;10116;53.112;7.356;2023-04-15T10:46:09;25.90;14.40
19908;DHT22;10116;53.112;7.356;2023-04-15T10:48:35;25.90;14.60
19908;DHT22;10116;53.112;7.356;2023-04-15T10:51:01;25.90;14.40
19908;DHT22;10116;53.112;7.356;2023-04-15T10:53:29;25.90;14.40
19908;DHT22;10116;53.112;7.356;2023-04-15T10:55:56;25.90;14.40
19908;DHT22;10116;53.112;7.356;2023-04-15T10:58:23;25.90;15.00
19908;DHT22;10116;53.112;7.356;2023-04-15T11:00:51;25.90;14.90
19908;DHT22;10116;53.112;7.356;2023-04-15T11:03:36;25.90;14.10
19908;DHT22;10116;53.112;7.356;2023-04-15T11:06:04;25.90;14.40
19908;DHT22;10116;53.112;7.356;2023-04-15T11:11:18;25.90;14.30
19908;DHT22;10116;53.112;7.356;2023-04-15T11:13:48;25.90;14.20
19908;DHT22;10116;53.112;7.356;2023-04-15T11:16:16;25.90;13.80
19908;DHT22;10116;53.112;7.356;2023-04-15T11:18:42;25.90;14.50
19908;DHT22;10116;53.112;7.356;2023-04-15T11:21:17;25.90;14.20
19908;DHT22;10116;53.112;7.356;2023-04-15T11:23:43;25.90;14.90
19908;DHT22;10116;53.112;7.356;2023-04-15T11:26:11;25.90;14.60
19908;DHT22;10116;53.112;7.356;2023-04-15T11:28:41;25.90;14.90
19908;DHT22;10116;53.112;7.356;2023-04-15T11:31:15;26.00;15.30
19908;DHT22;10116;53.112;7.356;2023-04-15T11:33:54;26.00;15.30
19908;DHT22;10116;53.112;7.356;2023-04-15T11:36:20;26.00;15.70
19908;DHT22;10116;53.112;7.356;2023-04-15T11:38:46;26.00;15.50
19908;DHT22;10116;53.112;7.356;2023-04-15T11:41:12;26.00;15.70
19908;DHT22;10116;53.112;7.356;2023-04-15T11:43:37;26.00;15.50
19908;DHT22;10116;53.112;7.356;2023-04-15T11:46:03;25.90;15.70
19908;DHT22;10116;53.112;7.356;2023-04-15T11:48:34;25.90;15.10
19908;DHT22;10116;53.112;7.356;2023-04-15T11:51:06;25.90;14.80
19908;DHT22;10116;53.112;7.356;2023-04-15T11:56:09;25.90;15.10
19908;DHT22;10116;53.112;7.356;2023-04-15T11:58:36;25.90;14.70
19908;DHT22;10116;53.112;7.356;2023-04-15T12:01:05;25.90;14.90
19908;DHT22;10116;53.112;7.356;2023-04-15T12:03:45;25.90;14.90
19908;DHT22;10116;53.112;7.356;2023-04-15T12:13:54;25.80;23.60
19908;DHT22;10116;53.112;7.356;2023-04-15T12:16:22;25.80;14.80
19908;DHT22;10116;53.112;7.356;2023-04-15T12:18:56;25.80;14.70
19908;DHT22;10116;53.112;7.356;2023-04-15T12:21:23;25.80;14.00
19908;DHT22;10116;53.112;7.356;2023-04-15T12:23:53;25.80;14.00
19908;DHT22;10116;53.112;7.356;2023-04-15T12:26:27;25.80;13.80
19908;DHT22;10116;53.112;7.356;2023-04-15T12:29:04;25.70;23.00
19908;DHT22;10116;53.112;7.356;2023-04-15T12:31:30;25.70;13.70
19908;DHT22;10116;53.112;7.356;2023-04-15T12:33:59;25.70;14.20
19908;DHT22;10116;53.112;7.356;2023-04-15T12:36:26;25.70;13.60
19908;DHT22;10116;53.112;7.356;2023-04-15T12:38:52;25.70;13.50
19908;DHT22;10116;53.112;7.356;2023-04-15T12:41:19;25.60;13.20
19908;DHT22;10116;53.112;7.356;2023-04-15T12:43:46;25.60;13.70
19908;DHT22;10116;53.112;7.356;2023-04-15T12:46:12;25.60;13.20
19908;DHT22;10116;53.112;7.356;2023-04-15T12:48:39;25.60;12.90
19908;DHT22;10116;53.112;7.356;2023-04-15T12:51:04;25.50;13.10
19908;DHT22;10116;53.112;7.356;2023-04-15T12:53:30;25.50;13.00
19908;DHT22;10116;53.112;7.356;2023-04-15T12:55:56;25.50;12.60
19908;DHT22;10116;53.112;7.356;2023-04-15T12:58:22;25.50;12.70
19908;DHT22;10116;53.112;7.356;2023-04-15T13:00:47;25.50;12.70
19908;DHT22;10116;53.112;7.356;2023-04-15T13:03:14;25.40;12.60
19908;DHT22;10116;53.112;7.356;2023-04-15T13:05:39;25.40;12.70
19908;DHT22;10116;53.112;7.356;2023-04-15T13:08:05;25.40;12.60
19908;DHT22;10116;53.112;7.356;2023-04-15T13:10:32;25.40;12.70
19908;DHT22;10116;53.112;7.356;2023-04-15T13:12:58;25.40;12.60
19908;DHT22;10116;53.112;7.356;2023-04-15T13:15:23;25.50;13.20
19908;DHT22;10116;53.112;7.356;2023-04-15T13:17:50;25.50;13.60
19908;DHT22;10116;53.112;7.356;2023-04-15T13:20:16;25.60;14.40
19908;DHT22;10116;53.112;7.356;2023-04-15T13:22:42;25.60;24.30
19908;DHT22;10116;53.112;7.356;2023-04-15T13:25:07;25.70;15.40
19908;DHT22;10116;53.112;7.356;2023-04-15T13:27:33;25.70;15.80
19908;DHT22;10116;53.112;7.356;2023-04-15T13:29:59;25.70;15.70
19908;DHT22;10116;53.112;7.356;2023-04-15T13:32:25;25.80;15.70
19908;DHT22;10116;53.112;7.356;2023-04-15T13:34:51;25.80;16.00
19908;DHT22;10116;53.112;7.356;2023-04-15T13:37:16;25.80;16.00
19908;DHT22;10116;53.112;7.356;2023-04-15T13:39:42;25.80;16.40
19908;DHT22;10116;53.112;7.356;2023-04-15T13:42:08;25.80;15.90
19908;DHT22;10116;53.112;7.356;2023-04-15T13:44:34;25.80;25.30
19908;DHT22;10116;53.112;7.356;2023-04-15T13:46:59;25.80;16.30
19908;DHT22;10116;53.112;7.356;2023-04-15T13:49:25;25.80;15.90
19908;DHT22;10116;53.112;7.356;2023-04-15T13:51:51;25.70;15.90
19908;DHT22;10116;53.112;7.356;2023-04-15T13:54:16;25.70;15.50
19908;DHT22;10116;53.112;7.356;2023-04-15T13:56:42;25.70;15.90
19908;DHT22;10116;53.112;7.356;2023-04-15T13:59:07;25.70;15.80
19908;DHT22;10116;53.112;7.356;2023-04-15T14:01:34;25.60;14.90
19908;DHT22;10116;53.112;7.356;2023-04-15T14:03:59;25.60;15.20
19908;DHT22;10116;53.112;7.356;2023-04-15T14:06:25;25.60;15.30
19908;DHT22;10116;53.112;7.356;2023-04-15T14:08:51;25.70;15.80
19908;DHT22;10116;53.112;7.356;2023-04-15T14:11:17;25.70;16.00
19908;DHT22;10116;53.112;7.356;2023-04-15T14:13:43;25.70;16.80
19908;DHT22;10116;53.112;7.356;2023-04-15T14:16:09;25.80;16.50
19908;DHT22;10116;53.112;7.356;2023-04-15T14:18:35;25.80;16.80
19908;DHT22;10116;53.112;7.356;2023-04-15T14:21:02;25.80;16.70
19908;DHT22;10116;53.112;7.356;2023-04-15T14:23:28;25.80;16.60
19908;DHT22;10116;53.112;7.356;2023-04-15T14:25:53;25.80;17.10
19908;DHT22;10116;53.112;7.356;2023-04-15T14:28:19;25.80;17.10
19908;DHT22;10116;53.112;7.356;2023-04-15T14:30:44;25.80;17.40
19908;DHT22;10116;53.112;7.356;2023-04-15T14:33:10;25.80;17.10
19908;DHT22;10116;53.112;7.356;2023-04-15T14:35:36;25.80;17.40
19908;DHT22;10116;53.112;7.356;2023-04-15T14:38:02;25.80;17.40
19908;DHT22;10116;53.112;7.356;2023-04-15T14:40:28;25.80;18.10
19908;DHT22;10116;53.112;7.356;2023-04-15T14:42:53;25.90;17.70
19908;DHT22;10116;53.112;7.356;2023-04-15T14:45:19;25.90;17.30
19908;DHT22;10116;53.112;7.356;2023-04-15T14:47:46;25.90;17.60
19908;DHT22;10116;53.112;7.356;2023-04-15T14:50:11;25.90;18.70
19908;DHT22;10116;53.112;7.356;2023-04-15T14:52:37;25.90;17.90
19908;DHT22;10116;53.112;7.356;2023-04-15T14:55:07;25.90;17.80
19908;DHT22;10116;53.112;7.356;2023-04-15T14:57:32;25.90;18.10
19908;DHT22;10116;53.112;7.356;2023-04-15T14:59:58;25.90;18.30
19908;DHT22;10116;53.112;7.356;2023-04-15T15:02:24;25.90;18.30
19908;DHT22;10116;53.112;7.356;2023-04-15T15:04:49;25.90;18.10
19908;DHT22;10116;53.112;7.356;2023-04-15T15:07:15;26.00;18.70
19908;DHT22;10116;53.112;7.356;2023-04-15T15:09:41;26.00;19.60
19908;DHT22;10116;53.112;7.356;2023-04-15T15:12:06;26.00;18.90
19908;DHT22;10116;53.112;7.356;2023-04-15T15:14:32;26.10;19.60
19908;DHT22;10116;53.112;7.356;2023-04-15T15:16:58;26.10;19.50
19908;DHT22;10116;53.112;7.356;2023-04-15T15:19:23;26.10;19.90
19908;DHT22;10116;53.112;7.356;2023-04-15T15:21:49;26.20;28.80
19908;DHT22;10116;53.112;7.356;2023-04-15T15:24:15;26.20;19.80
19908;DHT22;10116;53.112;7.356;2023-04-15T15:26:41;26.20;20.00
19908;DHT22;10116;53.112;7.356;2023-04-15T15:29:06;26.20;20.60
19908;DHT22;10116;53.112;7.356;2023-04-15T15:31:34;26.20;20.30
19908;DHT22;10116;53.112;7.356;2023-04-15T15:34:00;26.20;20.00
19908;DHT22;10116;53.112;7.356;2023-04-15T15:36:25;26.20;19.90
19908;DHT22;10116;53.112;7.356;2023-04-15T15:38:51;26.20;20.00
19908;DHT22;10116;53.112;7.356;2023-04-15T15:41:17;26.20;20.00
19908;DHT22;10116;53.112;7.356;2023-04-15T15:43:43;26.20;20.00
19908;DHT22;10116;53.112;7.356;2023-04-15T15:46:09;26.20;19.50
19908;DHT22;10116;53.112;7.356;2023-04-15T15:48:34;26.20;19.50
19908;DHT22;10116;53.112;7.356;2023-04-15T15:51:00;26.20;20.50
19908;DHT22;10116;53.112;7.356;2023-04-15T15:53:26;26.20;19.40